createdAt,value
2017-06-08T00:00:48.534Z,1035.1
2017-06-08T00:01:48.527Z,1035.09
2017-06-08T00:02:48.522Z,1035.04
2017-06-08T00:03:48.516Z,1035.07
2017-06-08T00:04:48.510Z,1035.08
2017-06-08T00:05:48.505Z,1035.15
2017-06-08T00:06:48.499Z,1035.17
2017-06-08T00:07:48.494Z,1035.2
2017-06-08T00:08:48.488Z,1035.21
2017-06-08T00:09:48.482Z,1035.24
2017-06-08T00:10:48.477Z,1035.3
2017-06-08T00:11:48.471Z,1035.33
2017-06-08T00:12:48.464Z,1035.36
2017-06-08T00:13:48.459Z,1035.4
2017-06-08T00:14:48.453Z,1035.41
2017-06-08T00:15:48.447Z,1035.49
2017-06-08T00:16:48.442Z,1035.46
2017-06-08T00:17:48.436Z,1035.48
2017-06-08T00:18:48.430Z,1035.5
2017-06-08T00:19:48.424Z,1035.56
2017-06-08T00:20:48.418Z,1035.56
2017-06-08T00:21:48.413Z,1035.55
2017-06-08T00:22:48.407Z,1035.58
2017-06-08T00:23:48.400Z,1035.62
2017-06-08T00:24:48.394Z,1035.66
2017-06-08T00:25:48.388Z,1035.62
2017-06-08T00:26:48.386Z,1035.67
2017-06-08T00:27:48.408Z,1035.71
2017-06-08T00:28:48.370Z,1035.7
2017-06-08T00:29:48.365Z,1035.68
2017-06-08T00:30:48.357Z,1035.68
2017-06-08T00:31:48.351Z,1035.68
2017-06-08T00:32:48.346Z,1035.64
2017-06-08T00:33:48.339Z,1035.73
2017-06-08T00:34:48.333Z,1035.77
2017-06-08T00:35:48.327Z,1035.76
2017-06-08T00:36:48.320Z,1035.8
2017-06-08T00:37:48.313Z,1035.76
2017-06-08T00:38:48.307Z,1035.69
2017-06-08T00:39:48.304Z,1035.67
2017-06-08T00:40:48.295Z,1035.66
2017-06-08T00:41:48.288Z,1035.7
2017-06-08T00:42:48.282Z,1035.71
2017-06-08T00:43:48.277Z,1035.73
2017-06-08T00:44:48.270Z,1035.69
2017-06-08T00:45:48.262Z,1035.68
2017-06-08T00:46:48.256Z,1035.62
2017-06-08T00:47:48.250Z,1035.63
2017-06-08T00:48:48.243Z,1035.57
2017-06-08T00:49:48.236Z,1035.66
2017-06-08T00:50:48.230Z,1035.64
2017-06-08T00:51:48.225Z,1035.69
2017-06-08T00:52:48.218Z,1035.63
2017-06-08T00:53:48.210Z,1035.66
2017-06-08T00:54:48.204Z,1035.67
2017-06-08T00:55:48.197Z,1035.64
2017-06-08T00:56:48.191Z,1035.67
2017-06-08T00:57:48.185Z,1035.65
2017-06-08T00:58:48.179Z,1035.65
2017-06-08T00:59:48.173Z,1035.66
2017-06-08T01:00:48.165Z,1035.66
2017-06-08T01:01:48.159Z,1035.65
2017-06-08T01:02:48.152Z,1035.69
2017-06-08T01:03:48.144Z,1035.72
2017-06-08T01:04:48.139Z,1035.68
2017-06-08T01:05:48.132Z,1035.67
2017-06-08T01:06:48.125Z,1035.67
2017-06-08T01:07:48.118Z,1035.65
2017-06-08T01:08:48.112Z,1035.66
2017-06-08T01:09:48.105Z,1035.65
2017-06-08T01:10:48.098Z,1035.64
2017-06-08T01:11:48.092Z,1035.66
2017-06-08T01:12:48.085Z,1035.62
2017-06-08T01:13:48.082Z,1035.62
2017-06-08T01:14:48.071Z,1035.63
2017-06-08T01:15:48.065Z,1035.68
2017-06-08T01:16:48.058Z,1035.64
2017-06-08T01:17:48.051Z,1035.62
2017-06-08T01:18:48.046Z,1035.65
2017-06-08T01:19:48.038Z,1035.62
2017-06-08T01:20:48.031Z,1035.59
2017-06-08T01:21:48.024Z,1035.57
2017-06-08T01:22:48.018Z,1035.59
2017-06-08T01:23:48.012Z,1035.58
2017-06-08T01:24:48.005Z,1035.63
2017-06-08T01:25:47.997Z,1035.61
2017-06-08T01:26:47.990Z,1035.65
2017-06-08T01:27:47.984Z,1035.66
2017-06-08T01:28:47.977Z,1035.64
2017-06-08T01:29:47.970Z,1035.64
2017-06-08T01:30:47.967Z,1035.65
2017-06-08T01:31:47.958Z,1035.64
2017-06-08T01:32:47.950Z,1035.64
2017-06-08T01:33:47.944Z,1035.63
2017-06-08T01:34:47.937Z,1035.64
2017-06-08T01:35:47.931Z,1035.66
2017-06-08T01:36:47.923Z,1035.66
2017-06-08T01:37:47.917Z,1035.6
2017-06-08T01:38:47.910Z,1035.58
2017-06-08T01:39:47.903Z,1035.63
2017-06-08T01:40:47.896Z,1035.6
2017-06-08T01:41:47.890Z,1035.63
2017-06-08T01:42:47.886Z,1035.67
2017-06-08T01:43:47.875Z,1035.64
2017-06-08T01:44:47.869Z,1035.66
2017-06-08T01:45:47.863Z,1035.64
2017-06-08T01:46:47.856Z,1035.61
2017-06-08T01:47:47.848Z,1035.61
2017-06-08T01:48:47.842Z,1035.63
2017-06-08T01:49:47.836Z,1035.61
2017-06-08T01:50:47.828Z,1035.56
2017-06-08T01:51:47.823Z,1035.5
2017-06-08T01:52:47.815Z,1035.46
2017-06-08T01:53:47.808Z,1035.47
2017-06-08T01:54:47.801Z,1035.43
2017-06-08T01:55:47.794Z,1035.44
2017-06-08T01:56:47.788Z,1035.48
2017-06-08T01:57:47.781Z,1035.46
2017-06-08T01:58:47.774Z,1035.44
2017-06-08T01:59:47.768Z,1035.46
2017-06-08T02:00:47.761Z,1035.43
2017-06-08T02:01:47.754Z,1035.48
2017-06-08T02:02:47.747Z,1035.47
2017-06-08T02:03:47.741Z,1035.49
2017-06-08T02:04:47.735Z,1035.46
2017-06-08T02:05:47.727Z,1035.47
2017-06-08T02:06:47.721Z,1035.44
2017-06-08T02:07:47.715Z,1035.46
2017-06-08T02:08:47.710Z,1035.44
2017-06-08T02:09:47.701Z,1035.46
2017-06-08T02:10:47.694Z,1035.45
2017-06-08T02:11:47.688Z,1035.53
2017-06-08T02:12:47.681Z,1035.51
2017-06-08T02:13:47.674Z,1035.56
2017-06-08T02:14:47.668Z,1035.55
2017-06-08T02:15:47.663Z,1035.54
2017-06-08T02:16:47.654Z,1035.59
2017-06-08T02:17:47.647Z,1035.59
2017-06-08T02:18:47.641Z,1035.6
2017-06-08T02:19:47.635Z,1035.67
2017-06-08T02:20:47.628Z,1035.7
2017-06-08T02:21:47.621Z,1035.73
2017-06-08T02:22:47.615Z,1035.81
2017-06-08T02:23:47.608Z,1035.78
2017-06-08T02:24:47.602Z,1035.77
2017-06-08T02:25:47.595Z,1035.79
2017-06-08T02:26:47.589Z,1035.76
2017-06-08T02:27:47.582Z,1035.77
2017-06-08T02:28:47.575Z,1035.74
2017-06-08T02:29:47.569Z,1035.77
2017-06-08T02:30:47.562Z,1035.78
2017-06-08T02:31:47.556Z,1035.73
2017-06-08T02:32:47.550Z,1035.75
2017-06-08T02:33:47.543Z,1035.72
2017-06-08T02:34:47.536Z,1035.73
2017-06-08T02:35:47.530Z,1035.67
2017-06-08T02:36:47.523Z,1035.66
2017-06-08T02:37:47.517Z,1035.67
2017-06-08T02:38:47.511Z,1035.6
2017-06-08T02:39:47.504Z,1035.57
2017-06-08T02:40:47.497Z,1035.61
2017-06-08T02:41:47.489Z,1035.63
2017-06-08T02:42:47.483Z,1035.63
2017-06-08T02:43:47.475Z,1035.64
2017-06-08T02:44:47.470Z,1035.62
2017-06-08T02:45:47.463Z,1035.66
2017-06-08T02:46:47.456Z,1035.68
2017-06-08T02:47:47.450Z,1035.66
2017-06-08T02:48:47.443Z,1035.64
2017-06-08T02:49:47.436Z,1035.63
2017-06-08T02:50:47.430Z,1035.62
2017-06-08T02:51:47.424Z,1035.55
2017-06-08T02:52:47.416Z,1035.54
2017-06-08T02:53:47.409Z,1035.52
2017-06-08T02:54:47.404Z,1035.49
2017-06-08T02:55:47.397Z,1035.46
2017-06-08T02:56:47.390Z,1035.48
2017-06-08T02:57:47.383Z,1035.43
2017-06-08T02:58:47.377Z,1035.41
2017-06-08T02:59:47.370Z,1035.4
2017-06-08T03:00:47.363Z,1035.35
2017-06-08T03:01:47.357Z,1035.35
2017-06-08T03:02:47.351Z,1035.36
2017-06-08T03:03:47.343Z,1035.34
2017-06-08T03:04:47.337Z,1035.3
2017-06-08T03:05:47.331Z,1035.3
2017-06-08T03:06:47.324Z,1035.27
2017-06-08T03:07:47.317Z,1035.21
2017-06-08T03:08:47.311Z,1035.2
2017-06-08T03:09:47.305Z,1035.23
2017-06-08T03:10:47.299Z,1035.18
2017-06-08T03:11:47.292Z,1035.14
2017-06-08T03:12:47.286Z,1035.08
2017-06-08T03:13:47.280Z,1035.08
2017-06-08T03:14:47.273Z,1035.11
2017-06-08T03:15:47.267Z,1035.05
2017-06-08T03:16:47.260Z,1035.05
2017-06-08T03:17:47.254Z,1035.03
2017-06-08T03:18:47.249Z,1035
2017-06-08T03:19:47.241Z,1034.96
2017-06-08T03:20:47.236Z,1034.96
2017-06-08T03:21:47.230Z,1034.94
2017-06-08T03:22:47.222Z,1034.88
2017-06-08T03:23:47.217Z,1034.84
2017-06-08T03:24:47.211Z,1034.81
2017-06-08T03:25:47.204Z,1034.84
2017-06-08T03:26:47.199Z,1034.85
2017-06-08T03:27:47.233Z,1034.82
2017-06-08T03:28:47.187Z,1034.8
2017-06-08T03:29:47.181Z,1034.81
2017-06-08T03:30:47.174Z,1034.81
2017-06-08T03:31:47.169Z,1034.75
2017-06-08T03:32:47.163Z,1034.75
2017-06-08T03:33:47.157Z,1034.72
2017-06-08T03:34:47.151Z,1034.68
2017-06-08T03:35:47.146Z,1034.64
2017-06-08T03:36:47.139Z,1034.64
2017-06-08T03:37:47.134Z,1034.59
2017-06-08T03:38:47.128Z,1034.61
2017-06-08T03:39:47.123Z,1034.59
2017-06-08T03:40:47.117Z,1034.58
2017-06-08T03:41:47.112Z,1034.53
2017-06-08T03:42:47.109Z,1034.53
2017-06-08T03:43:47.099Z,1034.49
2017-06-08T03:44:47.094Z,1034.51
2017-06-08T03:45:47.088Z,1034.48
2017-06-08T03:46:47.083Z,1034.46
2017-06-08T03:47:47.077Z,1034.43
2017-06-08T03:48:47.072Z,1034.37
2017-06-08T03:49:47.067Z,1034.41
2017-06-08T03:50:47.061Z,1034.34
2017-06-08T03:51:47.055Z,1034.37
2017-06-08T03:52:47.050Z,1034.32
2017-06-08T03:53:47.045Z,1034.35
2017-06-08T03:54:47.041Z,1034.29
2017-06-08T03:55:47.034Z,1034.23
2017-06-08T03:56:47.029Z,1034.21
2017-06-08T03:57:47.025Z,1034.21
2017-06-08T03:58:47.018Z,1034.09
2017-06-08T03:59:47.014Z,1033.98
2017-06-08T04:00:47.009Z,1033.84
2017-06-08T04:01:47.004Z,1033.59
2017-06-08T04:02:46.999Z,1033.39
2017-06-08T04:03:46.994Z,1033.4
2017-06-08T04:04:46.990Z,1033.44
2017-06-08T04:05:46.986Z,1033.48
2017-06-08T04:06:46.982Z,1033.5
2017-06-08T04:07:46.980Z,1033.51
2017-06-08T04:08:46.974Z,1033.53
2017-06-08T04:09:46.968Z,1033.57
2017-06-08T04:10:46.965Z,1033.64
2017-06-08T04:11:46.960Z,1033.69
2017-06-08T04:12:46.956Z,1033.68
2017-06-08T04:13:46.951Z,1033.68
2017-06-08T04:14:46.947Z,1033.64
2017-06-08T04:15:46.944Z,1033.61
2017-06-08T04:16:46.939Z,1033.51
2017-06-08T04:17:46.935Z,1033.48
2017-06-08T04:18:46.932Z,1033.33
2017-06-08T04:19:46.927Z,1033.26
2017-06-08T04:20:46.924Z,1033.21
2017-06-08T04:21:46.921Z,1033.14
2017-06-08T04:22:46.917Z,1033.12
2017-06-08T04:23:46.913Z,1033.07
2017-06-08T04:24:46.909Z,1032.76
2017-06-08T04:25:46.907Z,1032.5
2017-06-08T04:26:46.904Z,1032.09
2017-06-08T04:27:46.900Z,1031.73
2017-06-08T04:28:46.897Z,1031.4
2017-06-08T04:29:46.895Z,1031.08
2017-06-08T04:30:46.893Z,1031.04
2017-06-08T04:31:46.889Z,1030.86
2017-06-08T04:32:46.887Z,1031.05
2017-06-08T04:33:46.885Z,1031.28
2017-06-08T04:34:46.884Z,1031.47
2017-06-08T04:35:46.881Z,1031.53
2017-06-08T04:36:46.880Z,1031.63
2017-06-08T04:37:46.880Z,1031.79
2017-06-08T04:38:46.877Z,1031.77
2017-06-08T04:39:46.876Z,1031.84
2017-06-08T04:40:46.875Z,1031.84
2017-06-08T04:41:46.876Z,1031.82
2017-06-08T04:42:46.874Z,1031.8
2017-06-08T04:43:46.871Z,1031.8
2017-06-08T04:44:46.870Z,1031.7
2017-06-08T04:45:46.870Z,1031.77
2017-06-08T04:46:46.868Z,1031.76
2017-06-08T04:47:46.867Z,1031.78
2017-06-08T04:48:46.872Z,1031.73
2017-06-08T04:49:46.865Z,1031.52
2017-06-08T04:50:46.864Z,1031.44
2017-06-08T04:51:46.865Z,1031.59
2017-06-08T04:52:46.864Z,1031.36
2017-06-08T04:53:46.863Z,1031.16
2017-06-08T04:54:46.863Z,1031.2
2017-06-08T04:55:46.863Z,1030.86
2017-06-08T04:56:46.863Z,1030.46
2017-06-08T04:57:46.862Z,1030.2
2017-06-08T04:58:46.863Z,1029.94
2017-06-08T04:59:46.864Z,1029.68
2017-06-08T05:00:46.864Z,1029.43
2017-06-08T05:01:46.866Z,1029.16
2017-06-08T05:02:46.867Z,1028.93
2017-06-08T05:03:46.878Z,1028.8
2017-06-08T05:04:46.871Z,1028.61
2017-06-08T05:05:46.874Z,1028.82
2017-06-08T05:06:46.877Z,1028.84
2017-06-08T05:07:46.880Z,1028.97
2017-06-08T05:08:46.883Z,1029.11
2017-06-08T05:09:46.887Z,1029.29
2017-06-08T05:10:46.891Z,1029.49
2017-06-08T05:11:46.898Z,1029.72
2017-06-08T05:12:46.900Z,1029.9
2017-06-08T05:13:46.903Z,1030.07
2017-06-08T05:14:46.908Z,1030.26
2017-06-08T05:15:46.911Z,1030.68
2017-06-08T05:16:46.916Z,1030.48
2017-06-08T05:17:46.921Z,1030.1
2017-06-08T05:18:46.926Z,1030.16
2017-06-08T05:19:46.929Z,1030.06
2017-06-08T05:20:46.932Z,1030.11
2017-06-08T05:21:46.938Z,1030.17
2017-06-08T05:22:46.949Z,1030.21
2017-06-08T05:23:46.945Z,1030.29
2017-06-08T05:24:46.956Z,1030.31
2017-06-08T05:25:46.954Z,1030.42
2017-06-08T05:26:46.962Z,1030.52
2017-06-08T05:27:46.962Z,1030.58
2017-06-08T05:28:46.968Z,1030.63
2017-06-08T05:29:46.972Z,1030.65
2017-06-08T05:30:46.975Z,1030.71
2017-06-08T05:31:46.979Z,1030.82
2017-06-08T05:32:46.983Z,1030.87
2017-06-08T05:33:46.986Z,1030.93
2017-06-08T05:34:46.988Z,1030.95
2017-06-08T05:35:46.993Z,1030.99
2017-06-08T05:36:46.996Z,1031.09
2017-06-08T05:37:46.999Z,1031.16
2017-06-08T05:38:47.002Z,1031.15
2017-06-08T05:39:47.005Z,1031.2
2017-06-08T05:40:47.010Z,1031.21
2017-06-08T05:41:47.011Z,1031.19
2017-06-08T05:42:47.013Z,1031.23
2017-06-08T05:43:47.017Z,1031.28
2017-06-08T05:44:47.019Z,1031.37
2017-06-08T05:45:47.023Z,1031.37
2017-06-08T05:46:47.024Z,1031.4
2017-06-08T05:47:47.027Z,1031.38
2017-06-08T05:48:47.027Z,1031.38
2017-06-08T05:49:47.030Z,1031.42
2017-06-08T05:50:47.071Z,1031.41
2017-06-08T05:51:47.034Z,1031.4
2017-06-08T05:52:47.035Z,1031.4
2017-06-08T05:53:47.038Z,1031.43
2017-06-08T05:54:47.043Z,1031.5
2017-06-08T05:55:47.042Z,1031.56
2017-06-08T05:56:47.043Z,1031.53
2017-06-08T05:57:47.045Z,1031.54
2017-06-08T05:58:47.047Z,1031.61
2017-06-08T05:59:47.056Z,1031.6
2017-06-08T06:00:47.050Z,1031.57
2017-06-08T06:01:47.051Z,1031.58
2017-06-08T06:02:47.053Z,1031.55
2017-06-08T06:03:47.053Z,1031.53
2017-06-08T06:04:47.055Z,1031.52
2017-06-08T06:05:47.057Z,1031.54
2017-06-08T06:06:47.057Z,1031.59
2017-06-08T06:07:47.064Z,1031.53
2017-06-08T06:08:47.060Z,1031.5
2017-06-08T06:09:47.062Z,1031.42
2017-06-08T06:10:47.063Z,1031.36
2017-06-08T06:11:47.064Z,1031.37
2017-06-08T06:12:47.066Z,1031.26
2017-06-08T06:13:47.067Z,1031.22
2017-06-08T06:14:47.068Z,1031.21
2017-06-08T06:15:47.070Z,1031.11
2017-06-08T06:16:47.072Z,1031.04
2017-06-08T06:17:47.073Z,1031.1
2017-06-08T06:18:47.075Z,1031.08
2017-06-08T06:19:47.077Z,1031.02
2017-06-08T06:20:47.079Z,1030.98
2017-06-08T06:21:47.080Z,1030.9
2017-06-08T06:22:47.082Z,1030.91
2017-06-08T06:23:47.084Z,1030.83
2017-06-08T06:24:47.085Z,1030.94
2017-06-08T06:25:47.087Z,1031.08
2017-06-08T06:26:47.090Z,1031.07
2017-06-08T06:27:47.091Z,1031.07
2017-06-08T06:28:47.092Z,1031
2017-06-08T06:29:47.095Z,1030.9
2017-06-08T06:30:47.098Z,1030.81
2017-06-08T06:31:47.100Z,1030.63
2017-06-08T06:32:47.101Z,1030.53
2017-06-08T06:33:47.103Z,1030.42
2017-06-08T06:34:47.106Z,1030.28
2017-06-08T06:35:47.107Z,1030.27
2017-06-08T06:36:47.115Z,1030.21
2017-06-08T06:37:47.113Z,1030.09
2017-06-08T06:38:47.116Z,1029.9
2017-06-08T06:39:47.118Z,1029.56
2017-06-08T06:40:47.122Z,1029.39
2017-06-08T06:41:47.125Z,1029.15
2017-06-08T06:42:47.129Z,1028.91
2017-06-08T06:43:47.133Z,1028.64
2017-06-08T06:44:47.136Z,1028.45
2017-06-08T06:45:47.141Z,1028.29
2017-06-08T06:46:47.145Z,1027.96
2017-06-08T06:47:47.149Z,1027.77
2017-06-08T06:48:47.154Z,1027.6
2017-06-08T06:49:47.160Z,1027.23
2017-06-08T06:50:47.166Z,1027.12
2017-06-08T06:51:47.172Z,1026.86
2017-06-08T06:52:47.179Z,1026.55
2017-06-08T06:53:47.186Z,1026.42
2017-06-08T06:54:47.193Z,1026.16
2017-06-08T06:55:47.201Z,1025.89
2017-06-08T06:56:47.209Z,1025.7
2017-06-08T06:57:47.217Z,1025.47
2017-06-08T06:58:47.226Z,1025.15
2017-06-08T06:59:47.236Z,1024.95
2017-06-08T07:00:47.246Z,1024.84
2017-06-08T07:01:47.256Z,1024.71
2017-06-08T07:02:47.267Z,1024.52
2017-06-08T07:03:47.278Z,1024.33
2017-06-08T07:04:47.289Z,1024.24
2017-06-08T07:05:47.300Z,1024.21
2017-06-08T07:06:47.312Z,1023.97
2017-06-08T07:07:47.325Z,1024.17
2017-06-08T07:08:47.337Z,1024.34
2017-06-08T07:09:47.350Z,1024.55
2017-06-08T07:10:47.364Z,1024.66
2017-06-08T07:11:47.379Z,1024.53
2017-06-08T07:12:47.391Z,1024.5
2017-06-08T07:13:47.404Z,1024.2
2017-06-08T07:14:47.418Z,1024.25
2017-06-08T07:15:47.434Z,1024.26
2017-06-08T07:16:47.448Z,1024.09
2017-06-08T07:17:47.463Z,1024.4
2017-06-08T07:18:47.477Z,1024.26
2017-06-08T07:19:47.492Z,1024.18
2017-06-08T07:20:47.506Z,1024.79
2017-06-08T07:21:47.523Z,1024.49
2017-06-08T07:22:47.539Z,1024.56
2017-06-08T07:23:47.553Z,1024.74
2017-06-08T07:24:47.568Z,1024.94
2017-06-08T07:25:47.583Z,1025.43
2017-06-08T07:26:47.598Z,1025.53
2017-06-08T07:27:47.613Z,1025.82
2017-06-08T07:28:47.628Z,1025.86
2017-06-08T07:29:47.643Z,1025.9
2017-06-08T07:30:47.657Z,1025.9
2017-06-08T07:31:47.672Z,1025.65
2017-06-08T07:32:47.687Z,1025.94
2017-06-08T07:33:47.701Z,1026.09
2017-06-08T07:34:47.715Z,1026.33
2017-06-08T07:35:47.730Z,1026.56
2017-06-08T07:36:47.744Z,1026.73
2017-06-08T07:37:47.757Z,1026.84
2017-06-08T07:38:47.771Z,1026.66
2017-06-08T07:39:47.785Z,1026.2
2017-06-08T07:40:47.798Z,1025.94
2017-06-08T07:41:47.812Z,1026.59
2017-06-08T07:42:47.825Z,1026.45
2017-06-08T07:43:47.838Z,1025.7
2017-06-08T07:44:47.852Z,1025.77
2017-06-08T07:45:47.866Z,1026.3
2017-06-08T07:46:47.878Z,1026.05
2017-06-08T07:47:47.892Z,1025.55
2017-06-08T07:48:47.904Z,1026.39
2017-06-08T07:49:47.917Z,1027.1
2017-06-08T07:50:47.930Z,1026.39
2017-06-08T07:51:47.944Z,1027.63
2017-06-08T07:52:47.955Z,1027.25
2017-06-08T07:53:47.968Z,1026.57
2017-06-08T07:54:47.981Z,1025.79
2017-06-08T07:55:47.997Z,1025.23
2017-06-08T07:56:48.005Z,1024.92
2017-06-08T07:57:48.021Z,1024.28
2017-06-08T07:58:48.032Z,1025.12
2017-06-08T07:59:48.044Z,1026.69
2017-06-08T08:00:48.057Z,1026.41
2017-06-08T08:01:48.071Z,1026.3
2017-06-08T08:02:48.084Z,1025.88
2017-06-08T08:03:48.097Z,1026.72
2017-06-08T08:04:48.109Z,1027.11
2017-06-08T08:05:48.122Z,1027.62
2017-06-08T08:06:48.136Z,1027.81
2017-06-08T08:07:48.147Z,1027.03
2017-06-08T08:08:48.159Z,1027.62
2017-06-08T08:09:48.171Z,1028.23
2017-06-08T08:10:48.183Z,1028.46
2017-06-08T08:11:48.194Z,1028.8
2017-06-08T08:12:48.207Z,1028.72
2017-06-08T08:13:48.218Z,1028.15
2017-06-08T08:14:48.228Z,1027.23
2017-06-08T08:15:48.239Z,1026.58
2017-06-08T08:16:48.253Z,1026.11
2017-06-08T08:17:48.263Z,1025.58
2017-06-08T08:18:48.274Z,1025.18
2017-06-08T08:19:48.286Z,1024.82
2017-06-08T08:20:48.298Z,1024.48
2017-06-08T08:21:48.310Z,1024.37
2017-06-08T08:22:48.323Z,1024.45
2017-06-08T08:23:48.336Z,1024.7
2017-06-08T08:24:48.348Z,1024.9
2017-06-08T08:25:48.362Z,1025.02
2017-06-08T08:26:48.373Z,1025.3
2017-06-08T08:27:48.387Z,1025.64
2017-06-08T08:28:48.400Z,1025.79
2017-06-08T08:29:48.412Z,1026.03
2017-06-08T08:30:48.429Z,1026.14
2017-06-08T08:31:48.438Z,1026.29
2017-06-08T08:32:48.452Z,1026.49
2017-06-08T08:33:48.464Z,1026.88
2017-06-08T08:34:48.477Z,1027.03
2017-06-08T08:35:48.490Z,1027.15
2017-06-08T08:36:48.501Z,1027.23
2017-06-08T08:37:48.514Z,1027.18
2017-06-08T08:38:48.526Z,1027.11
2017-06-08T08:39:48.538Z,1027.43
2017-06-08T08:40:48.550Z,1027.71
2017-06-08T08:41:48.561Z,1027.97
2017-06-08T08:42:48.572Z,1028.21
2017-06-08T08:43:48.584Z,1028.31
2017-06-08T08:44:48.596Z,1028.56
2017-06-08T08:45:48.607Z,1028.69
2017-06-08T08:46:48.619Z,1028.65
2017-06-08T08:47:48.629Z,1028.68
2017-06-08T08:48:48.641Z,1028.81
2017-06-08T08:49:48.651Z,1028.84
2017-06-08T08:50:48.662Z,1028.77
2017-06-08T08:51:48.672Z,1028.89
2017-06-08T08:52:48.683Z,1028.89
2017-06-08T08:53:48.694Z,1028.71
2017-06-08T08:54:48.704Z,1028.6
2017-06-08T08:55:48.714Z,1028.69
2017-06-08T08:56:48.725Z,1028.85
2017-06-08T08:57:48.734Z,1029.07
2017-06-08T08:58:48.744Z,1029.25
2017-06-08T08:59:48.754Z,1029.46
2017-06-08T09:00:48.766Z,1029.57
2017-06-08T09:01:48.772Z,1029.79
2017-06-08T09:02:48.821Z,1029.98
2017-06-08T09:03:48.794Z,1030.08
2017-06-08T09:04:48.802Z,1030.17
2017-06-08T09:05:48.825Z,1030.46
2017-06-08T09:06:48.824Z,1030.61
2017-06-08T09:07:48.830Z,1030.59
2017-06-08T09:08:48.838Z,1030.55
2017-06-08T09:09:48.846Z,1030.55
2017-06-08T09:10:48.854Z,1030.68
2017-06-08T09:11:48.862Z,1030.73
2017-06-08T09:12:48.869Z,1030.81
2017-06-08T09:13:48.877Z,1030.9
2017-06-08T09:14:48.886Z,1030.99
2017-06-08T09:15:48.895Z,1031.14
2017-06-08T09:16:48.900Z,1031.18
2017-06-08T09:17:48.907Z,1031.22
2017-06-08T09:18:48.915Z,1031.23
2017-06-08T09:19:48.923Z,1031.29
2017-06-08T09:20:48.929Z,1031.18
2017-06-08T09:21:48.936Z,1031.24
2017-06-08T09:22:48.943Z,1031.15
2017-06-08T09:23:48.949Z,1031.19
2017-06-08T09:24:48.956Z,1031.24
2017-06-08T09:25:48.963Z,1031.4
2017-06-08T09:26:48.969Z,1031.47
2017-06-08T09:27:48.975Z,1031.49
2017-06-08T09:28:48.983Z,1031.49
2017-06-08T09:29:48.988Z,1031.35
2017-06-08T09:30:48.994Z,1031.41
2017-06-08T09:31:48.999Z,1031.32
2017-06-08T09:32:49.006Z,1031.3
2017-06-08T09:33:49.012Z,1031.16
2017-06-08T09:34:49.017Z,1031.05
2017-06-08T09:35:49.024Z,1030.95
2017-06-08T09:36:49.030Z,1030.76
2017-06-08T09:37:49.040Z,1030.7
2017-06-08T09:38:49.043Z,1030.71
2017-06-08T09:39:49.047Z,1030.56
2017-06-08T09:40:49.054Z,1030.53
2017-06-08T09:41:49.060Z,1030.58
2017-06-08T09:42:49.066Z,1030.49
2017-06-08T09:43:49.072Z,1030.47
2017-06-08T09:44:49.079Z,1030.42
2017-06-08T09:45:49.083Z,1030.38
2017-06-08T09:46:49.091Z,1030.36
2017-06-08T09:47:49.097Z,1030.41
2017-06-08T09:48:49.104Z,1030.47
2017-06-08T09:49:49.110Z,1030.34
2017-06-08T09:50:49.117Z,1030.33
2017-06-08T09:51:49.124Z,1030.35
2017-06-08T09:52:49.130Z,1030.38
2017-06-08T09:53:49.137Z,1030.41
2017-06-08T09:54:49.143Z,1030.37
2017-06-08T09:55:49.152Z,1030.24
2017-06-08T09:56:49.156Z,1030.13
2017-06-08T09:57:49.162Z,1030.08
2017-06-08T09:58:49.170Z,1029.9
2017-06-08T09:59:49.176Z,1029.84
2017-06-08T10:00:49.184Z,1029.84
2017-06-08T10:01:49.191Z,1029.88
2017-06-08T10:02:49.197Z,1029.8
2017-06-08T10:03:49.204Z,1029.84
2017-06-08T10:04:49.212Z,1029.91
2017-06-08T10:05:49.218Z,1029.93
2017-06-08T10:06:49.225Z,1029.86
2017-06-08T10:07:49.231Z,1029.89
2017-06-08T10:08:49.240Z,1030.11
2017-06-08T10:09:49.245Z,1030.17
2017-06-08T10:10:49.253Z,1030.35
2017-06-08T10:11:49.260Z,1030.36
2017-06-08T10:12:49.267Z,1030.54
2017-06-08T10:13:49.275Z,1030.58
2017-06-08T10:14:49.282Z,1030.67
2017-06-08T10:15:49.288Z,1030.76
2017-06-08T10:16:49.295Z,1030.91
2017-06-08T10:17:49.304Z,1030.9
2017-06-08T10:18:49.309Z,1030.94
2017-06-08T10:19:49.314Z,1030.92
2017-06-08T10:20:49.322Z,1030.74
2017-06-08T10:21:49.329Z,1030.82
2017-06-08T10:22:49.336Z,1030.78
2017-06-08T10:23:49.343Z,1030.66
2017-06-08T10:24:49.349Z,1030.76
2017-06-08T10:25:49.358Z,1030.86
2017-06-08T10:26:49.363Z,1030.89
2017-06-08T10:27:49.369Z,1030.87
2017-06-08T10:28:49.377Z,1030.96
2017-06-08T10:29:49.382Z,1030.99
2017-06-08T10:30:49.390Z,1030.97
2017-06-08T10:31:49.396Z,1030.92
2017-06-08T10:32:49.401Z,1030.85
2017-06-08T10:33:49.408Z,1030.74
2017-06-08T10:34:49.414Z,1030.64
2017-06-08T10:35:49.422Z,1030.53
2017-06-08T10:36:49.427Z,1030.54
2017-06-08T10:37:49.434Z,1030.42
2017-06-08T10:38:49.439Z,1030.3
2017-06-08T10:39:49.447Z,1030.16
2017-06-08T10:40:49.452Z,1030.14
2017-06-08T10:41:49.459Z,1030.07
2017-06-08T10:42:49.466Z,1029.9
2017-06-08T10:43:49.473Z,1029.91
2017-06-08T10:44:49.478Z,1029.9
2017-06-08T10:45:49.485Z,1029.84
2017-06-08T10:46:49.492Z,1029.81
2017-06-08T10:47:49.498Z,1029.83
2017-06-08T10:48:49.505Z,1029.75
2017-06-08T10:49:49.513Z,1029.77
2017-06-08T10:50:49.520Z,1029.77
2017-06-08T10:51:49.528Z,1029.93
2017-06-08T10:52:49.533Z,1030.05
2017-06-08T10:53:49.540Z,1030.08
2017-06-08T10:54:49.548Z,1030.06
2017-06-08T10:55:49.554Z,1030.21
2017-06-08T10:56:49.561Z,1030.27
2017-06-08T10:57:49.569Z,1030.39
2017-06-08T10:58:49.574Z,1030.48
2017-06-08T10:59:49.581Z,1030.59
2017-06-08T11:00:49.589Z,1030.7
2017-06-08T11:01:49.595Z,1030.68
2017-06-08T11:02:49.602Z,1030.82
2017-06-08T11:03:49.608Z,1030.85
2017-06-08T11:04:49.615Z,1030.94
2017-06-08T11:05:49.623Z,1030.98
2017-06-08T11:06:49.628Z,1031
2017-06-08T11:07:49.671Z,1031.06
2017-06-08T11:08:49.641Z,1031.16
2017-06-08T11:09:49.647Z,1031.2
2017-06-08T11:10:49.654Z,1031.33
2017-06-08T11:11:49.659Z,1031.35
2017-06-08T11:12:49.665Z,1031.44
2017-06-08T11:13:49.670Z,1031.49
2017-06-08T11:14:49.677Z,1031.55
2017-06-08T11:15:49.682Z,1031.64
2017-06-08T11:16:49.688Z,1031.64
2017-06-08T11:17:49.693Z,1031.61
2017-06-08T11:18:49.698Z,1031.62
2017-06-08T11:19:49.704Z,1031.62
2017-06-08T11:20:49.709Z,1031.62
2017-06-08T11:21:49.714Z,1031.55
2017-06-08T11:22:49.720Z,1031.48
2017-06-08T11:23:49.726Z,1031.33
2017-06-08T11:24:49.731Z,1031.24
2017-06-08T11:25:49.738Z,1031.16
2017-06-08T11:26:49.741Z,1031.09
2017-06-08T11:27:49.746Z,1031.02
2017-06-08T11:28:49.751Z,1030.94
2017-06-08T11:29:49.757Z,1030.99
2017-06-08T11:30:49.762Z,1030.96
2017-06-08T11:31:49.767Z,1031.07
2017-06-08T11:32:49.771Z,1031.04
2017-06-08T11:33:49.777Z,1031.12
2017-06-08T11:34:49.783Z,1031.07
2017-06-08T11:35:49.788Z,1031.02
2017-06-08T11:36:49.794Z,1031
2017-06-08T11:37:49.800Z,1030.99
2017-06-08T11:38:49.804Z,1031.15
2017-06-08T11:39:49.809Z,1031.19
2017-06-08T11:40:49.814Z,1031.23
2017-06-08T11:41:49.820Z,1031.32
2017-06-08T11:42:49.824Z,1031.38
2017-06-08T11:43:49.831Z,1031.36
2017-06-08T11:44:49.835Z,1031.38
2017-06-08T11:45:49.842Z,1031.42
2017-06-08T11:46:49.845Z,1031.47
2017-06-08T11:47:49.852Z,1031.42
2017-06-08T11:48:49.856Z,1031.44
2017-06-08T11:49:49.861Z,1031.47
2017-06-08T11:50:49.866Z,1031.37
2017-06-08T11:51:49.871Z,1031.31
2017-06-08T11:52:49.876Z,1031.28
2017-06-08T11:53:49.881Z,1031.27
2017-06-08T11:54:49.886Z,1031.2
2017-06-08T11:55:49.892Z,1031.2
2017-06-08T11:56:49.895Z,1031.14
2017-06-08T11:57:49.901Z,1031.08
2017-06-08T11:58:49.906Z,1031.07
2017-06-08T11:59:49.911Z,1030.97
2017-06-08T12:00:49.916Z,1030.94
2017-06-08T12:01:49.922Z,1030.9
2017-06-08T12:02:49.926Z,1030.79
2017-06-08T12:03:49.932Z,1030.69
2017-06-08T12:04:49.936Z,1030.64
2017-06-08T12:05:49.941Z,1030.51
2017-06-08T12:06:49.946Z,1030.45
2017-06-08T12:07:49.952Z,1030.34
2017-06-08T12:08:49.957Z,1030.23